Time;durP1;ratioP1;P1;durP2;ratioP2;P2;SDS_P1;SDS_P2;PMS_P1;PMS_P2;Temp;Humidity;BMP_temperature;BMP_pressure;BME280_temperature;BME280_humidity;BME280_pressure;Samples;Min_cycle;Max_cycle;Signal;HPM_P1;HPM_P2
2022/08/30 00:03:07;;;;;;;13.40;10.52;;;15.40;94.60;;;;;;5072160;28;20110;-67
2022/08/30 00:05:34;;;;;;;15.20;11.95;;;15.30;94.60;;;;;;5074360;28;20033;-66
2022/08/30 00:07:59;;;;;;;15.70;11.35;;;15.20;94.20;;;;;;5071696;28;20037;-66
2022/08/30 00:10:27;;;;;;;12.63;11.27;;;15.20;93.90;;;;;;5072288;28;20035;-65
2022/08/30 00:12:54;;;;;;;16.17;11.98;;;15.20;93.60;;;;;;5073782;28;20032;-65
2022/08/30 00:15:20;;;;;;;16.40;12.70;;;15.20;93.60;;;;;;5073568;28;20111;-66
2022/08/30 00:17:46;;;;;;;15.43;12.20;;;15.20;93.70;;;;;;5071273;28;20032;-68
2022/08/30 00:20:16;;;;;;;15.50;12.00;;;15.20;93.60;;;;;;5073408;28;20048;-66
2022/08/30 00:22:43;;;;;;;13.90;11.32;;;15.20;93.60;;;;;;5074113;28;20035;-68
2022/08/30 00:25:09;;;;;;;14.85;11.05;;;15.10;93.40;;;;;;5068511;28;20353;-66
2022/08/30 00:27:34;;;;;;;15.90;12.35;;;15.10;93.10;;;;;;5068448;28;20154;-67
2022/08/30 00:30:00;;;;;;;14.02;10.68;;;15.10;92.80;;;;;;5063882;28;20094;-67
2022/08/30 00:32:26;;;;;;;15.35;11.80;;;15.10;93.10;;;;;;5073978;28;20294;-68
2022/08/30 00:34:53;;;;;;;14.07;10.20;;;15.10;93.40;;;;;;5074200;28;20035;-66
2022/08/30 00:37:20;;;;;;;14.45;11.77;;;15.00;93.10;;;;;;5061078;28;20067;-66
2022/08/30 00:39:47;;;;;;;13.55;11.02;;;14.90;92.80;;;;;;5062232;28;20021;-66
2022/08/30 00:42:14;;;;;;;16.15;11.75;;;15.00;92.50;;;;;;5063429;28;20028;-67
2022/08/30 00:44:40;;;;;;;16.33;11.32;;;15.10;92.90;;;;;;5057866;28;20021;-66
2022/08/30 00:47:07;;;;;;;15.38;12.35;;;15.10;92.90;;;;;;5061736;28;20036;-67
2022/08/30 00:49:36;;;;;;;14.32;11.27;;;15.10;93.20;;;;;;5059727;28;20021;-66
2022/08/30 00:52:04;;;;;;;14.15;11.32;;;15.10;93.60;;;;;;5074617;28;20020;-66
2022/08/30 00:54:32;;;;;;;12.32;10.35;;;15.00;93.50;;;;;;5058973;28;20048;-67
2022/08/30 00:56:58;;;;;;;15.85;10.35;;;14.90;93.10;;;;;;5062774;28;20021;-67
2022/08/30 00:59:25;;;;;;;16.05;11.95;;;14.90;93.10;;;;;;5070332;28;20069;-67
2022/08/30 01:01:52;;;;;;;14.55;10.90;;;14.90;92.50;;;;;;5071873;28;20025;-67
2022/08/30 01:04:20;;;;;;;14.77;11.30;;;14.90;92.70;;;;;;5062768;28;20048;-66
2022/08/30 01:06:46;;;;;;;16.95;12.90;;;14.80;93.20;;;;;;5066203;28;20329;-67
2022/08/30 01:09:13;;;;;;;16.00;12.38;;;14.70;92.90;;;;;;5050194;28;20025;-66
2022/08/30 01:11:41;;;;;;;14.98;10.98;;;14.60;92.20;;;;;;5053678;28;20029;-66
2022/08/30 01:14:08;;;;;;;16.77;12.35;;;14.70;91.90;;;;;;5054463;28;20585;-67
2022/08/30 01:16:35;;;;;;;18.25;11.82;;;14.80;92.00;;;;;;5052238;28;20032;-67
2022/08/30 01:19:00;;;;;;;13.60;11.48;;;14.80;92.20;;;;;;5052231;28;20047;-67
2022/08/30 01:21:41;;;;;;;16.65;12.52;;;14.70;92.50;;;;;;5056982;28;20056;-68
2022/08/30 01:24:08;;;;;;;15.27;11.43;;;14.70;92.20;;;;;;5056877;28;20032;-67
2022/08/30 01:26:35;;;;;;;17.10;11.40;;;14.70;92.00;;;;;;5052102;28;20036;-66
2022/08/30 01:29:05;;;;;;;13.93;11.88;;;14.70;92.00;;;;;;5052178;28;20116;-68
2022/08/30 01:31:33;;;;;;;15.77;12.13;;;14.70;91.90;;;;;;5053581;28;20040;-68
2022/08/30 01:34:00;;;;;;;17.02;12.95;;;14.70;91.60;;;;;;5053068;28;20439;-67
2022/08/30 01:36:26;;;;;;;16.85;12.75;;;14.60;91.40;;;;;;5061481;28;20025;-68
2022/08/30 01:38:55;;;;;;;16.33;12.75;;;14.60;90.20;;;;;;5064642;28;20078;-68
2022/08/30 01:41:34;;;;;;;15.95;12.18;;;14.70;90.20;;;;;;5069662;28;20094;-68
2022/08/30 01:44:04;;;;;;;16.83;12.48;;;14.80;90.70;;;;;;5076633;28;20021;-68
2022/08/30 01:46:36;;;;;;;20.48;13.70;;;14.80;91.20;;;;;;5076756;28;20475;-69
2022/08/30 01:49:06;;;;;;;15.63;12.63;;;14.60;91.30;;;;;;5076953;28;20052;-68
2022/08/30 01:51:32;;;;;;;15.20;12.25;;;14.60;91.20;;;;;;5065229;28;20016;-68
2022/08/30 01:54:00;;;;;;;14.38;11.70;;;14.60;90.60;;;;;;5071944;28;20029;-68
2022/08/30 01:56:28;;;;;;;18.58;12.20;;;14.60;90.50;;;;;;5076435;28;20095;-68
2022/08/30 01:58:55;;;;;;;16.02;12.68;;;14.70;91.00;;;;;;5068832;28;20305;-68
2022/08/30 02:01:24;;;;;;;15.52;11.50;;;14.60;91.20;;;;;;5069519;28;20025;-68
2022/08/30 02:03:52;;;;;;;11.20;9.95;;;14.50;90.20;;;;;;5071415;28;20053;-68
2022/08/30 02:06:18;;;;;;;16.40;12.77;;;14.50;90.30;;;;;;5075975;28;20433;-68
2022/08/30 02:08:45;;;;;;;15.65;11.70;;;14.50;89.80;;;;;;5072404;28;20024;-69
2022/08/30 02:11:12;;;;;;;16.85;12.02;;;14.50;89.70;;;;;;5070953;28;20020;-68
2022/08/30 02:13:39;;;;;;;14.98;10.90;;;14.50;90.10;;;;;;5075248;28;20020;-68
2022/08/30 02:16:11;;;;;;;16.23;12.15;;;14.40;89.80;;;;;;5071234;28;20059;-69
2022/08/30 02:18:38;;;;;;;17.48;13.48;;;14.50;89.60;;;;;;5073740;28;20062;-68
2022/08/30 02:21:05;;;;;;;16.80;11.57;;;14.40;90.30;;;;;;5070509;28;20025;-68
2022/08/30 02:23:31;;;;;;;15.98;12.35;;;14.50;89.50;;;;;;5066149;28;20036;-68
2022/08/30 02:25:57;;;;;;;14.40;11.98;;;14.60;90.00;;;;;;5072365;28;20036;-68
2022/08/30 02:28:24;;;;;;;14.10;10.93;;;14.50;90.20;;;;;;5067011;28;20061;-68
2022/08/30 02:30:51;;;;;;;15.65;10.60;;;14.50;89.90;;;;;;5057077;28;20028;-68
2022/08/30 02:33:22;;;;;;;14.07;11.80;;;14.50;90.00;;;;;;5067483;28;20141;-68
2022/08/30 02:35:48;;;;;;;15.40;12.75;;;14.50;90.50;;;;;;5067234;28;20086;-68
2022/08/30 02:38:17;;;;;;;16.25;11.90;;;14.50;90.50;;;;;;5057470;28;20081;-68
2022/08/30 02:40:43;;;;;;;14.90;11.90;;;14.40;90.10;;;;;;5073850;28;20063;-69
2022/08/30 02:43:10;;;;;;;17.38;11.90;;;14.40;89.80;;;;;;5065623;28;20485;-68
2022/08/30 02:45:36;;;;;;;15.82;12.80;;;14.40;89.60;;;;;;5064001;28;20093;-68
2022/08/30 02:48:02;;;;;;;15.93;11.45;;;14.40;89.70;;;;;;5071847;28;20089;-68
2022/08/30 02:50:28;;;;;;;17.02;13.65;;;14.40;88.70;;;;;;5068960;28;20043;-68
2022/08/30 02:52:56;;;;;;;15.75;12.07;;;14.50;89.70;;;;;;5071342;28;20028;-68
2022/08/30 02:55:30;;;;;;;16.77;13.60;;;14.40;89.40;;;;;;5066964;28;20064;-68
2022/08/30 02:57:56;;;;;;;17.92;13.35;;;14.40;89.80;;;;;;5071733;28;20295;-68
2022/08/30 03:00:22;;;;;;;16.15;12.95;;;14.30;89.60;;;;;;5070097;28;20032;-67
2022/08/30 03:02:48;;;;;;;16.20;13.27;;;14.30;88.70;;;;;;5072856;28;20027;-67
2022/08/30 03:05:16;;;;;;;16.52;12.73;;;14.20;88.90;;;;;;5070186;28;20041;-66
2022/08/30 03:07:44;;;;;;;16.48;12.88;;;14.20;87.90;;;;;;5074477;28;20032;-66
2022/08/30 03:10:10;;;;;;;17.98;12.00;;;14.30;87.90;;;;;;5065886;28;20412;-65
2022/08/30 03:12:36;;;;;;;17.17;13.32;;;14.30;87.70;;;;;;5067640;28;20409;-67
2022/08/30 03:15:04;;;;;;;15.05;12.43;;;14.30;87.90;;;;;;5069213;28;20103;-67
2022/08/30 03:17:30;;;;;;;19.70;13.68;;;14.40;88.10;;;;;;5074396;28;20306;-68
2022/08/30 03:19:59;;;;;;;19.95;13.45;;;14.40;88.20;;;;;;5074603;28;20126;-68
2022/08/30 03:22:24;;;;;;;15.65;12.25;;;14.30;88.10;;;;;;5075960;28;20025;-68
2022/08/30 03:24:50;;;;;;;17.88;14.40;;;14.30;87.50;;;;;;5072639;28;20032;-68
2022/08/30 03:27:16;;;;;;;18.63;14.18;;;14.30;87.90;;;;;;5075951;28;20024;-68
2022/08/30 03:29:41;;;;;;;15.40;12.82;;;14.30;87.10;;;;;;5074291;28;20410;-68
2022/08/30 03:32:07;;;;;;;17.25;13.77;;;14.20;87.00;;;;;;5073378;28;20573;-68
2022/08/30 03:34:33;;;;;;;21.05;13.73;;;14.20;87.40;;;;;;5076114;28;20020;-68
2022/08/30 03:37:00;;;;;;;17.40;13.30;;;14.10;86.30;;;;;;5074146;28;20452;-68
2022/08/30 03:39:26;;;;;;;16.40;12.43;;;14.20;85.40;;;;;;5073065;28;20056;-67
2022/08/30 03:41:52;;;;;;;17.00;12.50;;;14.10;86.30;;;;;;5074862;28;20418;-67
2022/08/30 03:44:19;;;;;;;15.13;12.15;;;14.10;85.50;;;;;;5069326;28;20024;-67
2022/08/30 03:46:45;;;;;;;17.83;13.90;;;14.20;85.30;;;;;;5073033;28;20024;-68
2022/08/30 03:49:11;;;;;;;18.88;14.52;;;14.30;84.80;;;;;;5070187;28;20405;-68
2022/08/30 03:51:37;;;;;;;17.27;13.50;;;14.20;86.20;;;;;;5071367;28;20025;-68
2022/08/30 03:54:02;;;;;;;21.55;13.85;;;14.00;86.40;;;;;;5069884;28;20025;-68
2022/08/30 03:56:28;;;;;;;16.83;13.63;;;13.90;86.40;;;;;;5074586;28;20046;-68
2022/08/30 03:58:54;;;;;;;23.45;13.23;;;13.70;86.60;;;;;;5070652;28;20051;-67
2022/08/30 04:01:20;;;;;;;21.55;14.93;;;13.80;84.20;;;;;;5072645;28;20154;-68
2022/08/30 04:03:45;;;;;;;18.58;15.15;;;13.80;84.90;;;;;;5073100;28;20060;-68
2022/08/30 04:06:11;;;;;;;20.65;15.07;;;13.80;84.80;;;;;;5077239;28;20032;-67
2022/08/30 04:08:37;;;;;;;15.95;13.65;;;13.80;84.20;;;;;;5070455;28;20037;-67
2022/08/30 04:11:03;;;;;;;21.73;13.73;;;13.80;83.60;;;;;;5075426;28;20028;-67
2022/08/30 04:13:29;;;;;;;19.48;13.65;;;13.80;84.60;;;;;;5078519;28;20290;-68
2022/08/30 04:15:55;;;;;;;18.63;12.95;;;13.80;84.00;;;;;;5074140;28;20035;-68
2022/08/30 04:18:21;;;;;;;21.08;14.73;;;13.70;84.30;;;;;;5079357;28;20029;-68
2022/08/30 04:20:47;;;;;;;19.42;13.32;;;13.70;84.60;;;;;;5078712;28;20077;-68
2022/08/30 04:23:13;;;;;;;20.58;14.75;;;13.70;84.70;;;;;;5077627;28;20082;-68
2022/08/30 04:25:40;;;;;;;19.83;14.65;;;13.70;83.60;;;;;;5077281;28;20097;-67
2022/08/30 04:28:07;;;;;;;19.95;15.00;;;13.70;83.30;;;;;;5078645;28;20432;-67
2022/08/30 04:30:33;;;;;;;20.55;16.20;;;13.70;82.80;;;;;;5078226;28;20024;-68
2022/08/30 04:32:59;;;;;;;22.40;17.33;;;13.80;83.00;;;;;;5078958;28;20029;-68
2022/08/30 04:35:25;;;;;;;17.45;13.30;;;13.90;82.10;;;;;;5078470;28;20036;-68
2022/08/30 04:37:51;;;;;;;23.40;16.73;;;13.80;82.40;;;;;;5077707;28;20325;-68
2022/08/30 04:40:20;;;;;;;19.38;15.25;;;13.90;83.00;;;;;;5067354;28;20032;-67
2022/08/30 04:42:46;;;;;;;15.90;13.40;;;13.80;83.00;;;;;;5078849;28;20029;-67
2022/08/30 04:45:14;;;;;;;18.83;14.77;;;13.80;82.00;;;;;;5077323;28;20039;-67
2022/08/30 04:47:41;;;;;;;22.60;15.35;;;13.90;82.70;;;;;;5073463;28;20119;-67
2022/08/30 04:50:10;;;;;;;21.58;14.93;;;13.90;83.00;;;;;;5069665;28;20696;-67
2022/08/30 04:52:36;;;;;;;20.98;15.30;;;13.90;83.20;;;;;;5078481;28;20321;-68
2022/08/30 04:55:03;;;;;;;21.38;16.25;;;14.00;82.30;;;;;;5074367;28;20103;-67
2022/08/30 04:57:29;;;;;;;16.45;13.88;;;13.90;83.50;;;;;;5074960;28;20028;-68
2022/08/30 04:59:57;;;;;;;22.88;17.02;;;13.90;83.20;;;;;;5071206;28;20031;-68
2022/08/30 05:02:23;;;;;;;16.58;13.85;;;13.90;83.50;;;;;;5074900;28;20032;-67
2022/08/30 05:07:36;;;;;;;18.38;14.02;;;13.80;82.40;;;;;;5072356;28;20079;-67
2022/08/30 05:10:02;;;;;;;18.67;14.77;;;14.00;81.80;;;;;;5069965;28;20056;-67
2022/08/30 05:12:29;;;;;;;16.63;12.82;;;14.10;83.10;;;;;;5076103;28;20347;-67
2022/08/30 05:14:57;;;;;;;19.83;15.32;;;14.20;82.60;;;;;;5074906;28;20032;-67
2022/08/30 05:17:23;;;;;;;17.52;14.43;;;14.20;83.80;;;;;;5070233;28;20032;-67
2022/08/30 05:19:48;;;;;;;15.60;11.98;;;14.10;84.20;;;;;;5074793;28;20031;-67
2022/08/30 05:22:14;;;;;;;16.38;13.32;;;14.10;83.60;;;;;;5066721;28;21581;-67
2022/08/30 05:24:40;;;;;;;16.70;12.60;;;14.20;83.80;;;;;;5066258;28;20062;-68
2022/08/30 05:27:05;;;;;;;15.50;12.45;;;14.20;84.30;;;;;;5073041;28;20277;-67
2022/08/30 05:29:32;;;;;;;20.02;13.90;;;14.20;83.90;;;;;;5069157;28;20325;-67
2022/08/30 05:31:58;;;;;;;16.08;12.63;;;14.30;85.40;;;;;;5066268;28;20012;-67
2022/08/30 05:34:26;;;;;;;14.98;11.52;;;14.30;85.50;;;;;;5074718;28;20031;-67
2022/08/30 05:36:52;;;;;;;14.73;12.20;;;14.30;85.40;;;;;;5069761;28;20021;-67
2022/08/30 05:39:18;;;;;;;18.63;13.50;;;14.40;85.70;;;;;;5074571;28;20036;-67
2022/08/30 05:41:43;;;;;;;17.95;13.70;;;14.50;85.90;;;;;;5075860;28;20052;-67
2022/08/30 05:44:10;;;;;;;18.73;12.93;;;14.60;85.40;;;;;;5076511;28;20028;-67
2022/08/30 05:46:36;;;;;;;15.57;12.68;;;14.70;84.80;;;;;;5074711;28;20035;-68
2022/08/30 05:49:04;;;;;;;18.80;14.07;;;14.80;85.10;;;;;;5076834;28;20032;-68
2022/08/30 05:51:33;;;;;;;17.13;12.40;;;14.90;85.00;;;;;;5073561;28;20402;-68
2022/08/30 05:53:59;;;;;;;16.10;12.52;;;15.00;84.90;;;;;;5071441;28;20039;-68
2022/08/30 05:56:32;;;;;;;15.25;11.15;;;15.20;85.30;;;;;;5077393;28;20016;-66
2022/08/30 05:58:58;;;;;;;16.15;11.82;;;15.30;85.70;;;;;;5076305;28;20041;-66
2022/08/30 06:01:35;;;;;;;17.13;12.90;;;15.50;86.50;;;;;;5071891;28;20337;-66
2022/08/30 06:04:04;;;;;;;13.85;11.52;;;15.60;88.50;;;;;;5070215;28;20132;-66
2022/08/30 06:06:34;;;;;;;18.05;12.98;;;15.80;90.00;;;;;;5067563;28;20036;-66
2022/08/30 06:09:00;;;;;;;16.20;12.38;;;15.90;93.10;;;;;;5067682;28;20437;-68
2022/08/30 06:11:26;;;;;;;15.35;12.65;;;16.00;94.70;;;;;;5075803;28;20029;-68
2022/08/30 06:13:53;;;;;;;15.82;13.40;;;16.20;94.70;;;;;;5074725;28;20099;-68
2022/08/30 06:16:21;;;;;;;15.95;12.30;;;16.40;95.40;;;;;;5075411;28;20025;-68
2022/08/30 06:18:49;;;;;;;15.40;12.35;;;16.50;96.70;;;;;;5073379;28;20284;-68
2022/08/30 06:21:21;;;;;;;18.13;13.88;;;16.70;97.80;;;;;;5072023;28;20585;-68
2022/08/30 06:23:47;;;;;;;19.67;12.52;;;16.80;98.00;;;;;;5075130;28;20077;-68
2022/08/30 06:26:14;;;;;;;15.48;12.73;;;16.90;98.00;;;;;;5076329;28;20415;-68
2022/08/30 06:28:39;;;;;;;17.38;13.05;;;17.10;98.00;;;;;;5076070;28;20028;-68
2022/08/30 06:31:07;;;;;;;19.60;12.80;;;17.20;98.00;;;;;;5074339;28;20316;-67
2022/08/30 06:33:33;;;;;;;16.48;12.95;;;17.30;98.00;;;;;;5074904;28;20081;-67
2022/08/30 06:36:09;;;;;;;13.20;10.55;;;17.50;98.00;;;;;;5077101;28;20033;-68
2022/08/30 06:38:35;;;;;;;15.13;11.02;;;17.70;98.00;;;;;;5075083;28;20020;-67
2022/08/30 06:41:06;;;;;;;14.73;11.52;;;18.00;98.00;;;;;;5075155;28;20150;-67
2022/08/30 06:43:31;;;;;;;15.98;10.90;;;18.20;98.00;;;;;;5075372;28;20421;-68
2022/08/30 06:46:25;;;;;;;15.02;11.05;;;18.40;98.00;;;;;;5076759;28;20024;-68
2022/08/30 06:48:51;;;;;;;14.85;11.25;;;18.40;98.00;;;;;;5075302;28;20051;-67
2022/08/30 06:51:23;;;;;;;15.75;11.43;;;18.40;98.00;;;;;;5075241;28;20035;-68
2022/08/30 06:53:50;;;;;;;14.60;11.32;;;18.50;98.00;;;;;;5074910;28;20103;-68
2022/08/30 06:56:20;;;;;;;12.43;10.20;;;18.80;98.00;;;;;;5075188;28;20024;-68
2022/08/30 06:58:46;;;;;;;14.40;11.63;;;18.90;97.20;;;;;;5075969;28;20040;-68
2022/08/30 07:01:16;;;;;;;13.18;10.68;;;19.00;97.10;;;;;;5075532;28;20028;-68
2022/08/30 07:03:42;;;;;;;15.10;11.27;;;19.10;97.10;;;;;;5076120;28;20051;-68
2022/08/30 07:06:09;;;;;;;18.08;11.95;;;19.20;97.20;;;;;;5075576;28;20028;-68
2022/08/30 07:08:35;;;;;;;13.27;11.40;;;19.20;97.20;;;;;;5073241;28;20039;-66
2022/08/30 07:11:01;;;;;;;17.70;12.32;;;19.30;97.30;;;;;;5073930;28;20025;-67
2022/08/30 07:13:27;;;;;;;16.50;11.75;;;19.40;96.60;;;;;;5076068;28;20020;-68
2022/08/30 07:15:56;;;;;;;12.95;10.30;;;19.50;96.80;;;;;;5075289;28;20432;-68
2022/08/30 07:21:10;;;;;;;16.23;11.70;;;20.00;95.70;;;;;;5074328;28;20082;-68
2022/08/30 07:23:39;;;;;;;13.15;11.07;;;20.20;95.50;;;;;;5073574;28;20328;-68
2022/08/30 07:26:07;;;;;;;14.38;9.60;;;20.40;95.00;;;;;;5075935;28;20060;-68
2022/08/30 07:28:33;;;;;;;12.98;10.15;;;20.60;94.50;;;;;;5075527;28;20025;-68
2022/08/30 07:30:59;;;;;;;14.90;9.00;;;20.90;94.10;;;;;;5076113;28;20027;-68
2022/08/30 07:33:27;;;;;;;10.90;8.73;;;21.30;92.80;;;;;;5075908;28;20410;-68
2022/08/30 07:35:53;;;;;;;13.02;8.45;;;21.50;93.10;;;;;;5075793;28;20025;-68
2022/08/30 07:38:18;;;;;;;15.13;8.50;;;21.40;93.40;;;;;;5073210;28;20029;-68
2022/08/30 07:40:44;;;;;;;11.48;7.63;;;21.30;93.20;;;;;;5075923;28;20021;-68
2022/08/30 07:43:10;;;;;;;10.20;7.13;;;21.40;93.50;;;;;;5075747;28;20025;-68
2022/08/30 07:45:37;;;;;;;10.73;7.90;;;21.50;93.40;;;;;;5076013;28;20361;-68
2022/08/30 07:48:05;;;;;;;9.35;8.13;;;21.70;93.40;;;;;;5075116;28;20041;-68
2022/08/30 07:50:31;;;;;;;12.13;8.27;;;21.40;94.00;;;;;;5075192;28;20024;-68
2022/08/30 07:52:57;;;;;;;10.70;8.18;;;21.40;93.90;;;;;;5075295;28;20024;-68
2022/08/30 07:55:23;;;;;;;11.90;8.13;;;21.60;94.00;;;;;;5074784;28;20095;-68
2022/08/30 07:57:48;;;;;;;11.65;7.95;;;21.80;93.00;;;;;;5075231;28;20491;-67
2022/08/30 08:00:14;;;;;;;13.65;7.93;;;22.10;92.40;;;;;;5075843;28;20031;-67
2022/08/30 08:02:41;;;;;;;13.20;7.20;;;22.50;91.60;;;;;;5075580;28;20025;-68
2022/08/30 08:05:08;;;;;;;11.85;7.47;;;23.30;89.30;;;;;;5074875;28;20049;-66
2022/08/30 08:07:34;;;;;;;9.38;6.80;;;23.50;87.20;;;;;;5074947;28;20150;-67
2022/08/30 08:10:00;;;;;;;9.20;7.18;;;23.50;88.00;;;;;;5074597;28;20029;-67
2022/08/30 08:12:26;;;;;;;12.48;6.90;;;24.10;86.60;;;;;;5075342;28;20029;-68
2022/08/30 08:14:52;;;;;;;11.05;7.00;;;24.30;85.20;;;;;;5075848;28;20546;-67
2022/08/30 08:17:18;;;;;;;12.32;7.15;;;24.90;83.70;;;;;;5074868;28;20445;-68
2022/08/30 08:19:43;;;;;;;9.40;6.57;;;25.00;83.70;;;;;;5075178;28;20047;-68
2022/08/30 08:22:09;;;;;;;10.77;6.35;;;25.50;83.50;;;;;;5075098;28;20028;-68
2022/08/30 08:24:34;;;;;;;10.90;5.70;;;26.20;81.10;;;;;;5074098;28;20028;-68
2022/08/30 08:27:01;;;;;;;8.13;6.00;;;26.80;80.30;;;;;;5074963;28;20052;-68
2022/08/30 08:29:27;;;;;;;11.90;6.68;;;27.40;78.20;;;;;;5074479;28;20028;-68
2022/08/30 08:31:53;;;;;;;8.10;5.57;;;27.30;78.20;;;;;;5073774;28;20313;-68
2022/08/30 08:34:22;;;;;;;9.48;6.30;;;27.20;78.30;;;;;;5074281;28;20032;-67
2022/08/30 08:36:49;;;;;;;7.90;5.82;;;27.30;77.90;;;;;;5074368;28;20064;-68
2022/08/30 08:39:15;;;;;;;9.65;6.32;;;27.40;78.00;;;;;;5071797;28;20047;-68
2022/08/30 08:42:15;;;;;;;6.78;5.20;;;27.40;77.90;;;;;;5073992;28;20109;-68
2022/08/30 08:44:55;;;;;;;8.23;5.68;;;27.30;78.70;;;;;;5073805;28;20096;-68
2022/08/30 08:47:36;;;;;;;8.35;6.00;;;28.00;76.50;;;;;;5071681;28;20036;-67
2022/08/30 08:50:09;;;;;;;9.73;6.35;;;28.60;74.80;;;;;;5076511;28;20409;-67
2022/08/30 08:55:34;;;;;;;6.97;4.72;;;28.30;76.10;;;;;;5076365;28;20042;-66
2022/08/30 08:58:00;;;;;;;11.30;5.85;;;28.40;75.90;;;;;;5077847;28;20477;-66
2022/08/30 09:00:28;;;;;;;7.95;5.00;;;29.20;73.80;;;;;;5077680;28;20035;-66
2022/08/30 09:03:00;;;;;;;8.40;5.45;;;29.00;74.50;;;;;;5077330;28;20031;-68
2022/08/30 09:05:34;;;;;;;7.82;5.70;;;29.90;72.30;;;;;;5078363;28;20032;-68
2022/08/30 09:08:13;;;;;;;9.57;6.45;;;30.00;71.60;;;;;;5070307;28;20032;-68
2022/08/30 09:10:52;;;;;;;7.63;5.00;;;29.70;70.90;;;;;;5075890;28;20056;-67
2022/08/30 09:13:19;;;;;;;8.02;4.60;;;30.00;70.00;;;;;;5075830;28;20059;-68
2022/08/30 09:15:45;;;;;;;8.98;4.95;;;29.90;65.60;;;;;;5068400;28;20758;-68
2022/08/30 09:18:11;;;;;;;8.13;5.20;;;30.00;68.60;;;;;;5075354;28;20103;-68
2022/08/30 09:20:40;;;;;;;9.00;4.63;;;29.70;70.40;;;;;;5069680;28;20021;-68
2022/08/30 09:23:14;;;;;;;9.27;5.22;;;30.00;69.10;;;;;;5060193;28;20111;-68
2022/08/30 09:25:52;;;;;;;7.65;4.78;;;30.20;68.90;;;;;;5058952;28;20414;-68
2022/08/30 09:28:27;;;;;;;9.82;3.80;;;30.60;66.80;;;;;;5076023;28;20111;-67
2022/08/30 09:31:06;;;;;;;6.25;3.55;;;31.10;60.90;;;;;;5062731;28;20032;-67
2022/08/30 09:33:32;;;;;;;6.38;3.53;;;31.30;60.50;;;;;;5078355;28;20031;-67
2022/08/30 09:36:24;;;;;;;6.57;2.75;;;31.50;57.70;;;;;;5076349;28;20316;-66
2022/08/30 09:39:13;;;;;;;6.28;3.30;;;31.10;59.60;;;;;;5066938;28;20028;-66
2022/08/30 09:41:42;;;;;;;6.13;3.92;;;31.20;58.10;;;;;;5073914;28;20329;-66
2022/08/30 09:44:07;;;;;;;11.57;5.10;;;31.90;61.90;;;;;;5078011;28;20606;-65
2022/08/30 09:46:41;;;;;;;9.15;4.70;;;32.00;64.70;;;;;;5076490;28;20029;-66
2022/08/30 09:49:32;;;;;;;6.30;3.85;;;32.40;64.50;;;;;;5057941;28;20377;-67
2022/08/30 09:52:11;;;;;;;5.88;3.78;;;32.00;60.30;;;;;;5076412;28;20032;-68
2022/08/30 09:55:13;;;;;;;5.22;3.20;;;32.50;59.60;;;;;;5076088;28;20107;-67
2022/08/30 09:57:56;;;;;;;5.90;3.42;;;32.50;57.20;;;;;;5071109;28;20371;-67
2022/08/30 10:00:27;;;;;;;7.43;3.60;;;31.90;58.00;;;;;;5076305;28;20031;-66
2022/08/30 10:03:17;;;;;;;7.53;3.30;;;31.50;58.80;;;;;;5069434;28;20066;-67
2022/08/30 10:05:59;;;;;;;9.40;4.00;;;31.90;59.30;;;;;;5073220;28;20037;-67
2022/08/30 10:08:44;;;;;;;4.95;3.20;;;31.90;57.10;;;;;;5074860;28;20028;-67
2022/08/30 10:11:19;;;;;;;5.63;3.53;;;32.30;58.30;;;;;;5076401;28;20084;-68
2022/08/30 10:13:55;;;;;;;7.18;3.45;;;32.30;56.60;;;;;;5075341;28;20024;-68
2022/08/30 10:16:55;;;;;;;6.70;3.45;;;32.00;56.20;;;;;;5076468;28;20016;-67
2022/08/30 10:19:52;;;;;;;5.63;3.33;;;32.10;57.70;;;;;;5051094;28;20045;-67
2022/08/30 10:23:09;;;;;;;7.43;3.97;;;31.70;57.40;;;;;;5072485;28;20097;-68
2022/08/30 10:26:04;;;;;;;7.72;3.40;;;31.50;57.40;;;;;;5070343;28;20475;-68
2022/08/30 10:28:39;;;;;;;7.18;3.35;;;31.60;58.70;;;;;;5073674;28;20372;-68
2022/08/30 10:31:37;;;;;;;6.55;3.40;;;31.80;57.60;;;;;;5076312;28;20021;-68
2022/08/30 10:34:10;;;;;;;5.97;3.10;;;31.80;57.40;;;;;;5073094;28;20059;-68
2022/08/30 10:36:43;;;;;;;6.18;3.47;;;31.80;57.00;;;;;;5076317;28;20278;-68
2022/08/30 10:39:17;;;;;;;5.22;3.17;;;31.70;58.10;;;;;;5059496;28;20033;-68
2022/08/30 10:41:52;;;;;;;5.10;3.05;;;31.70;57.50;;;;;;5075957;28;20337;-67
2022/08/30 10:44:44;;;;;;;5.07;3.08;;;31.80;57.40;;;;;;5076890;28;20029;-67
2022/08/30 10:47:22;;;;;;;6.18;3.50;;;32.60;55.40;;;;;;5061692;28;20424;-67
2022/08/30 10:49:49;;;;;;;6.30;3.95;;;32.90;55.70;;;;;;5075660;28;20090;-67
2022/08/30 10:52:55;;;;;;;7.38;3.70;;;32.30;55.50;;;;;;5076716;28;20035;-68
2022/08/30 10:55:32;;;;;;;7.55;3.70;;;31.50;57.00;;;;;;5074156;28;20029;-67
2022/08/30 10:58:03;;;;;;;6.03;3.35;;;31.20;58.30;;;;;;5075348;28;20048;-68
2022/08/30 11:00:39;;;;;;;6.55;3.55;;;31.10;58.30;;;;;;5075839;28;20032;-67
2022/08/30 11:03:41;;;;;;;7.85;3.60;;;30.50;58.20;;;;;;5076211;28;20050;-67
2022/08/30 11:06:22;;;;;;;5.97;3.58;;;30.20;60.10;;;;;;5075288;28;20032;-67
2022/08/30 11:09:02;;;;;;;6.53;3.42;;;30.20;60.60;;;;;;5072267;28;20036;-67
2022/08/30 11:11:45;;;;;;;5.90;3.42;;;30.30;59.90;;;;;;5076458;28;20127;-67
2022/08/30 11:14:15;;;;;;;6.60;3.70;;;30.40;58.70;;;;;;5075640;28;20029;-67
2022/08/30 11:16:44;;;;;;;5.60;3.38;;;30.40;60.30;;;;;;5076304;28;20021;-67
2022/08/30 11:19:27;;;;;;;6.13;3.50;;;30.80;58.30;;;;;;5075551;28;20166;-67
2022/08/30 11:22:10;;;;;;;4.97;3.22;;;30.90;57.70;;;;;;5075604;28;20025;-67
2022/08/30 11:25:10;;;;;;;4.83;3.47;;;30.50;58.50;;;;;;5074971;28;20044;-67
2022/08/30 11:27:42;;;;;;;5.68;3.40;;;30.80;59.40;;;;;;5073519;28;20032;-67
2022/08/30 11:30:40;;;;;;;5.68;3.58;;;31.50;57.60;;;;;;5076110;28;20088;-68
2022/08/30 11:33:11;;;;;;;8.13;3.47;;;32.00;57.90;;;;;;5073799;28;20033;-67
2022/08/30 11:35:42;;;;;;;5.45;3.38;;;32.40;56.80;;;;;;5076131;28;20371;-68
2022/08/30 11:38:15;;;;;;;6.60;3.50;;;32.50;55.60;;;;;;5073564;28;20029;-66
2022/08/30 11:40:47;;;;;;;;;;;32.40;55.00;;;;;;5076392;28;20020;-67
2022/08/30 11:43:38;;;;;;;5.13;2.97;;;31.80;58.10;;;;;;5074950;28;19962;-67
2022/08/30 11:46:16;;;;;;;6.20;3.38;;;31.60;56.70;;;;;;5075910;28;20024;-65
2022/08/30 11:48:51;;;;;;;5.90;3.28;;;31.40;57.90;;;;;;5072648;28;20082;-66
2022/08/30 11:51:44;;;;;;;5.85;3.58;;;31.40;57.80;;;;;;5076017;28;20103;-65
2022/08/30 11:54:12;;;;;;;7.05;3.63;;;31.50;56.90;;;;;;5073434;28;20103;-65
2022/08/30 11:56:51;;;;;;;11.43;3.60;;;31.20;56.70;;;;;;5075038;28;20063;-66
2022/08/30 11:59:43;;;;;;;5.63;3.65;;;30.80;58.00;;;;;;5073171;28;20050;-67
2022/08/30 12:02:29;;;;;;;6.97;3.92;;;30.30;59.90;;;;;;5072244;28;20048;-67
2022/08/30 12:04:55;;;;;;;6.93;3.75;;;29.90;59.90;;;;;;5068196;28;20045;-67
2022/08/30 12:07:57;;;;;;;6.47;3.95;;;29.90;60.00;;;;;;5073904;28;20035;-67
2022/08/30 12:10:54;;;;;;;5.60;3.78;;;30.60;58.90;;;;;;5074369;28;20017;-67
2022/08/30 12:13:37;;;;;;;5.32;3.53;;;31.50;59.10;;;;;;5062198;28;20036;-67
2022/08/30 12:16:23;;;;;;;6.22;3.25;;;31.90;56.70;;;;;;5075686;28;20063;-67
2022/08/30 12:18:49;;;;;;;6.43;3.53;;;31.90;56.20;;;;;;5074572;28;20039;-67
2022/08/30 12:21:20;;;;;;;5.07;3.20;;;32.20;53.80;;;;;;5075027;28;20128;-67
2022/08/30 12:23:58;;;;;;;5.60;3.53;;;32.30;55.20;;;;;;5073352;28;20329;-67
2022/08/30 12:26:24;;;;;;;6.32;3.40;;;32.00;53.60;;;;;;5077123;28;20105;-67
2022/08/30 12:28:52;;;;;;;5.38;3.22;;;32.20;55.20;;;;;;5077598;28;20028;-67
2022/08/30 12:31:22;;;;;;;7.40;3.38;;;32.40;54.90;;;;;;5078664;28;20021;-67
2022/08/30 12:34:02;;;;;;;6.20;3.55;;;32.40;54.40;;;;;;5078601;28;20032;-67
2022/08/30 12:36:58;;;;;;;11.55;3.88;;;32.60;55.50;;;;;;5078665;28;20407;-68
2022/08/30 12:39:32;;;;;;;7.28;3.90;;;32.60;54.20;;;;;;5076363;28;20116;-67
2022/08/30 12:42:22;;;;;;;6.85;3.53;;;32.30;57.30;;;;;;5075609;28;20345;-67
2022/08/30 12:44:53;;;;;;;6.70;3.20;;;32.40;55.20;;;;;;5079001;28;20476;-67
2022/08/30 12:47:26;;;;;;;6.10;3.63;;;32.30;54.10;;;;;;5078189;28;20033;-67
2022/08/30 12:49:53;;;;;;;7.70;3.92;;;31.60;55.20;;;;;;5076136;28;20413;-67
2022/08/30 12:52:25;;;;;;;7.25;3.08;;;31.20;56.50;;;;;;5078617;28;20071;-67
2022/08/30 12:54:54;;;;;;;5.82;3.58;;;31.20;55.60;;;;;;5077859;28;20028;-67
2022/08/30 12:57:41;;;;;;;5.32;3.28;;;31.00;55.90;;;;;;5077140;28;20048;-68
2022/08/30 13:00:22;;;;;;;7.85;3.90;;;31.40;57.90;;;;;;5076964;28;20123;-67
2022/08/30 13:02:54;;;;;;;6.07;3.25;;;31.50;57.80;;;;;;5077187;28;20054;-67
2022/08/30 13:05:38;;;;;;;7.30;3.95;;;32.00;56.00;;;;;;5068883;28;20037;-67